Time;durP1;ratioP1;P1;durP2;ratioP2;P2;SDS_P1;SDS_P2;PMS_P1;PMS_P2;Temp;Humidity;BMP_temperature;BMP_pressure;BME280_temperature;BME280_humidity;BME280_pressure;Samples;Min_cycle;Max_cycle;Signal;HPM_P1;HPM_P2
2021/03/23 00:01:08;;;;;;;11.63;7.50;;;6.20;93.80;;;;;;5091748;28;20075;-75
2021/03/23 00:03:37;;;;;;;13.25;6.13;;;6.20;93.80;;;;;;5092215;28;20112;-75
2021/03/23 00:06:05;;;;;;;14.05;7.53;;;6.30;93.80;;;;;;5092280;28;20085;-75
2021/03/23 00:08:37;;;;;;;13.05;7.47;;;6.20;93.70;;;;;;5074558;28;20450;-75
2021/03/23 00:11:08;;;;;;;12.68;6.47;;;6.30;93.70;;;;;;5092212;28;20131;-75
2021/03/23 00:13:36;;;;;;;11.25;5.82;;;6.20;93.80;;;;;;5092245;28;20047;-75
2021/03/23 00:16:03;;;;;;;11.88;6.45;;;6.20;93.90;;;;;;5093241;28;20056;-75
2021/03/23 00:18:30;;;;;;;11.82;6.20;;;6.30;93.90;;;;;;5095723;28;20102;-75
2021/03/23 00:20:57;;;;;;;11.18;6.55;;;6.20;93.90;;;;;;5095800;28;20132;-75
2021/03/23 00:23:24;;;;;;;10.18;6.05;;;6.30;94.00;;;;;;5095933;28;20449;-75
2021/03/23 00:25:51;;;;;;;12.70;6.60;;;6.20;94.00;;;;;;5095916;28;20079;-75
2021/03/23 00:28:19;;;;;;;12.00;6.50;;;6.30;94.10;;;;;;5095586;28;20119;-76
2021/03/23 00:30:46;;;;;;;11.18;6.00;;;6.20;94.00;;;;;;5095719;28;20052;-75
2021/03/23 00:33:13;;;;;;;11.40;6.65;;;6.30;94.10;;;;;;5095958;28;20138;-75
2021/03/23 00:35:39;;;;;;;12.43;6.30;;;6.20;93.90;;;;;;5095796;28;20075;-75
2021/03/23 00:38:08;;;;;;;9.23;5.88;;;6.20;94.30;;;;;;5095351;28;20080;-75
2021/03/23 00:40:38;;;;;;;11.27;6.05;;;6.30;94.30;;;;;;5095423;28;20453;-75
2021/03/23 00:43:07;;;;;;;14.40;6.13;;;6.20;94.00;;;;;;5095002;28;20568;-74
2021/03/23 00:45:40;;;;;;;10.00;5.60;;;6.30;94.00;;;;;;5095254;28;20157;-75
2021/03/23 00:48:10;;;;;;;10.02;5.55;;;6.30;94.00;;;;;;5095599;28;20316;-75
2021/03/23 00:50:37;;;;;;;11.20;5.68;;;6.30;93.90;;;;;;5095419;28;20130;-76
2021/03/23 00:53:04;;;;;;;12.73;6.15;;;6.30;93.70;;;;;;5094845;28;20143;-75
2021/03/23 00:55:31;;;;;;;10.98;5.25;;;6.30;93.70;;;;;;5095403;28;20110;-75
2021/03/23 00:57:58;;;;;;;13.70;5.63;;;6.30;93.70;;;;;;5095497;28;20134;-75
2021/03/23 01:00:27;;;;;;;10.18;5.90;;;6.30;93.70;;;;;;5094949;28;20128;-75
2021/03/23 01:02:54;;;;;;;13.60;6.38;;;6.30;93.80;;;;;;5094572;28;20193;-75
2021/03/23 01:05:25;;;;;;;11.05;6.20;;;6.30;93.70;;;;;;5094819;28;20055;-75
2021/03/23 01:07:52;;;;;;;11.55;6.82;;;6.30;93.60;;;;;;5094882;28;20477;-75
2021/03/23 01:10:22;;;;;;;9.73;5.88;;;6.30;93.60;;;;;;5094814;28;20131;-75
2021/03/23 01:12:49;;;;;;;10.45;5.93;;;6.30;93.70;;;;;;5077559;28;20132;-75
2021/03/23 01:15:20;;;;;;;14.88;6.28;;;6.20;93.80;;;;;;5094898;28;20071;-75
2021/03/23 01:17:48;;;;;;;10.88;5.93;;;6.30;93.90;;;;;;5094741;28;20075;-75
2021/03/23 01:20:18;;;;;;;11.82;6.70;;;6.30;93.90;;;;;;5094811;28;20084;-75
2021/03/23 01:22:45;;;;;;;11.60;5.97;;;6.30;93.90;;;;;;5094201;28;20130;-75
2021/03/23 01:25:13;;;;;;;11.85;6.20;;;6.20;94.00;;;;;;5094741;28;20075;-75
2021/03/23 01:27:40;;;;;;;12.63;6.57;;;6.20;93.90;;;;;;5094090;28;20075;-75
2021/03/23 01:30:11;;;;;;;11.85;6.47;;;6.20;93.90;;;;;;5093606;28;20171;-75
2021/03/23 01:32:38;;;;;;;13.15;6.50;;;6.10;94.10;;;;;;5093863;28;20463;-75
2021/03/23 01:35:07;;;;;;;13.25;6.53;;;6.20;94.20;;;;;;5094152;28;20133;-75
2021/03/23 01:37:34;;;;;;;13.20;6.75;;;6.20;94.20;;;;;;5094408;28;20075;-74
2021/03/23 01:40:01;;;;;;;11.30;6.28;;;6.10;94.30;;;;;;5094384;28;20079;-73
2021/03/23 01:42:40;;;;;;;13.18;6.78;;;6.10;94.30;;;;;;5094006;28;20069;-75
2021/03/23 01:45:25;;;;;;;10.90;6.10;;;6.20;94.30;;;;;;5093771;28;20130;-76
2021/03/23 01:47:54;;;;;;;12.25;6.55;;;6.10;94.40;;;;;;5092878;28;20077;-75
2021/03/23 01:50:23;;;;;;;11.60;6.65;;;6.10;94.40;;;;;;5094426;28;20122;-75
2021/03/23 01:53:00;;;;;;;15.52;7.07;;;6.10;94.30;;;;;;5094238;28;20451;-75
2021/03/23 01:55:27;;;;;;;11.50;6.68;;;6.10;94.30;;;;;;5094224;28;20090;-75
2021/03/23 01:57:55;;;;;;;10.52;5.85;;;6.10;94.60;;;;;;5093472;28;20047;-74
2021/03/23 02:00:24;;;;;;;12.88;6.15;;;6.10;94.60;;;;;;5094043;28;20048;-74
2021/03/23 02:02:50;;;;;;;10.73;6.25;;;6.10;94.60;;;;;;5079284;28;20139;-75
2021/03/23 02:05:25;;;;;;;11.77;6.40;;;6.00;94.60;;;;;;5094169;28;20075;-75
2021/03/23 02:07:53;;;;;;;12.68;6.10;;;6.00;94.60;;;;;;5093969;28;20493;-75
2021/03/23 02:10:21;;;;;;;12.90;5.88;;;6.00;94.60;;;;;;5075823;28;20142;-75
2021/03/23 02:12:49;;;;;;;12.27;5.80;;;6.00;94.70;;;;;;5093988;28;20143;-75
2021/03/23 02:15:18;;;;;;;11.43;6.10;;;6.00;94.70;;;;;;5078037;28;20048;-75
2021/03/23 02:17:45;;;;;;;12.23;6.00;;;6.00;94.80;;;;;;5093920;28;20126;-74
2021/03/23 02:20:16;;;;;;;12.57;5.55;;;6.00;94.70;;;;;;5093378;28;20126;-75
2021/03/23 02:22:46;;;;;;;10.05;5.80;;;6.00;94.80;;;;;;5093578;28;20516;-75
2021/03/23 02:25:16;;;;;;;10.57;5.25;;;6.00;94.70;;;;;;5090900;28;20454;-75
2021/03/23 02:27:43;;;;;;;11.73;5.72;;;6.00;94.80;;;;;;5091468;28;20142;-75
2021/03/23 02:30:19;;;;;;;9.80;5.25;;;6.00;94.80;;;;;;5093562;28;20131;-74
2021/03/23 02:32:46;;;;;;;11.77;6.00;;;6.00;95.00;;;;;;5093043;28;20123;-75
2021/03/23 02:35:13;;;;;;;9.90;5.32;;;6.00;94.90;;;;;;5093382;28;20072;-74
2021/03/23 02:37:39;;;;;;;14.32;6.68;;;6.00;94.90;;;;;;5093091;28;20133;-74
2021/03/23 02:40:09;;;;;;;11.02;5.85;;;6.00;95.00;;;;;;5092832;28;20143;-76
2021/03/23 02:42:35;;;;;;;10.48;5.50;;;6.00;94.90;;;;;;5075786;28;20122;-74
2021/03/23 02:45:03;;;;;;;13.32;6.50;;;6.00;95.10;;;;;;5092659;28;20140;-74
2021/03/23 02:47:30;;;;;;;13.70;6.40;;;6.00;95.10;;;;;;5093366;28;20043;-75
2021/03/23 02:49:56;;;;;;;11.82;5.80;;;6.00;95.10;;;;;;5093233;28;20127;-74
2021/03/23 02:52:23;;;;;;;11.95;6.30;;;6.00;95.20;;;;;;5093521;28;20082;-75
2021/03/23 02:54:49;;;;;;;12.43;6.07;;;6.00;95.20;;;;;;5093040;28;20127;-75
2021/03/23 02:57:17;;;;;;;12.15;6.40;;;6.10;95.20;;;;;;5093184;28;20124;-75
2021/03/23 02:59:43;;;;;;;11.13;5.30;;;6.00;95.10;;;;;;5093103;28;20127;-74
2021/03/23 03:02:10;;;;;;;11.07;6.40;;;6.00;95.20;;;;;;5092803;28;20054;-75
2021/03/23 03:04:38;;;;;;;12.60;6.35;;;6.00;95.30;;;;;;5092975;28;20493;-75
2021/03/23 03:07:05;;;;;;;12.60;6.28;;;6.00;95.40;;;;;;5092974;28;20173;-74
2021/03/23 03:09:32;;;;;;;13.35;5.80;;;6.00;95.20;;;;;;5093181;28;20123;-75
2021/03/23 03:11:59;;;;;;;14.18;6.00;;;5.90;95.40;;;;;;5092811;28;20147;-74
2021/03/23 03:14:26;;;;;;;12.35;5.95;;;5.90;95.50;;;;;;5092911;28;20185;-75
2021/03/23 03:16:53;;;;;;;15.02;6.85;;;5.90;95.50;;;;;;5092674;28;20473;-74
2021/03/23 03:19:19;;;;;;;11.10;6.05;;;5.90;95.50;;;;;;5093051;28;20528;-75
2021/03/23 03:21:46;;;;;;;11.20;6.00;;;5.90;95.50;;;;;;5093111;28;20043;-74
2021/03/23 03:24:13;;;;;;;11.00;5.40;;;6.00;95.80;;;;;;5093129;28;20043;-74
2021/03/23 03:26:40;;;;;;;13.55;5.90;;;5.90;95.70;;;;;;5093025;28;20131;-74
2021/03/23 03:29:06;;;;;;;10.13;5.30;;;5.90;95.70;;;;;;5092580;28;20139;-75
2021/03/23 03:31:34;;;;;;;11.23;5.35;;;5.90;95.80;;;;;;5092485;28;20135;-74
2021/03/23 03:34:01;;;;;;;11.60;6.07;;;5.90;95.80;;;;;;5092611;28;20040;-75
2021/03/23 03:36:30;;;;;;;13.50;6.10;;;5.90;95.60;;;;;;5074956;28;20136;-74
2021/03/23 03:38:58;;;;;;;11.95;6.00;;;5.90;95.70;;;;;;5092568;28;20135;-74
2021/03/23 03:41:26;;;;;;;10.93;5.53;;;5.90;95.70;;;;;;5092527;28;20134;-74
2021/03/23 03:43:53;;;;;;;11.13;6.47;;;5.90;95.70;;;;;;5092497;28;20135;-74
2021/03/23 03:46:20;;;;;;;10.07;5.63;;;5.90;95.70;;;;;;5092092;28;20076;-74
2021/03/23 03:48:48;;;;;;;12.55;6.43;;;5.90;95.70;;;;;;5092676;28;20481;-74
2021/03/23 03:51:14;;;;;;;12.93;6.38;;;5.90;95.90;;;;;;5095976;28;20119;-74
2021/03/23 03:53:41;;;;;;;15.85;6.43;;;5.90;95.90;;;;;;5096936;28;20144;-74
2021/03/23 03:56:08;;;;;;;16.02;5.95;;;5.90;95.80;;;;;;5096557;28;20143;-74
2021/03/23 03:58:34;;;;;;;13.88;5.88;;;5.90;96.00;;;;;;5096404;28;20470;-74
2021/03/23 04:01:01;;;;;;;11.52;5.82;;;5.80;96.10;;;;;;5096057;28;20135;-74
2021/03/23 04:03:30;;;;;;;11.95;5.55;;;5.80;96.10;;;;;;5093972;28;20155;-74
2021/03/23 04:06:00;;;;;;;11.95;5.70;;;5.80;96.30;;;;;;5094733;28;20057;-74
2021/03/23 04:08:30;;;;;;;11.90;5.90;;;5.80;96.30;;;;;;5093446;28;20135;-74
2021/03/23 04:10:59;;;;;;;12.75;5.53;;;5.90;96.30;;;;;;5093498;28;20135;-74
2021/03/23 04:13:26;;;;;;;11.73;5.75;;;5.90;96.40;;;;;;5093992;28;20457;-74
2021/03/23 04:15:53;;;;;;;11.80;5.68;;;5.80;96.30;;;;;;5093906;28;20048;-74
2021/03/23 04:18:23;;;;;;;12.93;5.88;;;5.90;96.40;;;;;;5093656;28;20136;-74
2021/03/23 04:20:52;;;;;;;12.43;5.88;;;5.80;96.50;;;;;;5093591;28;20138;-74
2021/03/23 04:23:23;;;;;;;10.18;5.53;;;5.90;96.30;;;;;;5077939;28;20044;-74
2021/03/23 04:25:50;;;;;;;10.68;5.10;;;5.90;96.30;;;;;;5075479;28;20524;-74
2021/03/23 04:28:17;;;;;;;13.48;5.47;;;5.80;96.30;;;;;;5093083;28;20155;-74
2021/03/23 04:30:45;;;;;;;11.23;5.13;;;5.80;96.40;;;;;;5092968;28;20473;-74
2021/03/23 04:33:12;;;;;;;10.00;5.10;;;5.90;96.80;;;;;;5092139;28;20051;-74
2021/03/23 04:35:46;;;;;;;11.02;6.18;;;5.90;96.80;;;;;;5093290;28;20174;-74
2021/03/23 04:38:17;;;;;;;11.32;5.18;;;5.90;96.80;;;;;;5093088;28;20090;-74
2021/03/23 04:40:45;;;;;;;9.90;5.55;;;5.90;96.90;;;;;;5093427;28;20162;-75
2021/03/23 04:43:19;;;;;;;9.27;5.05;;;6.00;97.00;;;;;;5092634;28;20402;-75
2021/03/23 04:45:46;;;;;;;11.23;5.60;;;6.00;97.10;;;;;;5093031;28;20123;-74
2021/03/23 04:48:14;;;;;;;10.73;5.63;;;6.00;97.20;;;;;;5092834;28;20055;-75
2021/03/23 04:50:41;;;;;;;11.88;5.72;;;6.10;97.10;;;;;;5075019;28;20131;-75
2021/03/23 04:53:16;;;;;;;9.88;5.38;;;6.00;97.10;;;;;;5093040;28;20078;-74
2021/03/23 04:55:43;;;;;;;10.15;5.32;;;6.10;97.10;;;;;;5092898;28;20446;-75
2021/03/23 04:58:10;;;;;;;11.98;6.05;;;6.00;97.00;;;;;;5093158;28;20044;-75
2021/03/23 05:00:37;;;;;;;9.45;5.40;;;6.10;97.00;;;;;;5074766;28;20048;-75
2021/03/23 05:03:03;;;;;;;12.10;5.10;;;6.10;97.10;;;;;;5094266;28;20132;-74
2021/03/23 05:05:30;;;;;;;10.18;5.53;;;6.00;97.30;;;;;;5095173;28;20135;-75
2021/03/23 05:07:57;;;;;;;10.55;5.47;;;6.00;97.50;;;;;;5095604;28;20135;-74
2021/03/23 05:10:23;;;;;;;11.85;5.78;;;6.00;97.50;;;;;;5077470;28;20131;-75
2021/03/23 05:12:51;;;;;;;9.93;5.35;;;6.00;97.50;;;;;;5094523;28;20127;-74
2021/03/23 05:15:18;;;;;;;10.98;5.70;;;6.00;97.70;;;;;;5095177;28;20158;-74
2021/03/23 05:17:45;;;;;;;10.55;5.43;;;6.00;97.80;;;;;;5094950;28;20127;-76
2021/03/23 05:20:13;;;;;;;10.05;5.00;;;6.00;97.80;;;;;;5096706;28;20075;-74
2021/03/23 05:22:39;;;;;;;11.77;5.28;;;6.00;98.00;;;;;;5104683;28;20083;-75
2021/03/23 05:25:08;;;;;;;10.25;5.32;;;6.00;98.00;;;;;;5094617;28;20130;-75
2021/03/23 05:27:35;;;;;;;11.32;5.63;;;6.00;98.00;;;;;;5094946;28;20127;-74
2021/03/23 05:30:05;;;;;;;10.13;5.47;;;6.00;98.10;;;;;;5094698;28;20075;-74
2021/03/23 05:32:32;;;;;;;12.88;5.95;;;6.00;98.00;;;;;;5094399;28;20544;-74
2021/03/23 05:34:58;;;;;;;12.25;5.10;;;6.00;98.10;;;;;;5077284;28;20088;-74
2021/03/23 05:37:25;;;;;;;9.85;5.72;;;6.00;98.10;;;;;;5095143;28;20560;-74
2021/03/23 05:39:51;;;;;;;10.98;5.57;;;6.00;98.10;;;;;;5094678;28;20083;-74
2021/03/23 05:42:29;;;;;;;10.82;5.85;;;6.00;98.10;;;;;;5094883;28;20140;-74
2021/03/23 05:45:14;;;;;;;12.18;5.82;;;6.00;98.20;;;;;;5094878;28;20052;-74
2021/03/23 05:47:42;;;;;;;9.80;5.45;;;6.00;98.30;;;;;;5094912;28;20048;-74
2021/03/23 05:50:22;;;;;;;10.48;5.55;;;6.00;98.40;;;;;;5094799;28;20078;-74
2021/03/23 05:52:55;;;;;;;10.07;5.80;;;6.00;98.40;;;;;;5094547;28;20055;-75
2021/03/23 05:55:37;;;;;;;10.55;5.90;;;6.00;98.40;;;;;;5094387;28;20048;-74
2021/03/23 05:58:04;;;;;;;11.20;5.68;;;6.00;98.40;;;;;;5077647;28;20383;-74
2021/03/23 06:00:36;;;;;;;13.90;6.45;;;6.00;98.50;;;;;;5094466;28;20127;-75
2021/03/23 06:03:17;;;;;;;10.88;6.43;;;6.10;98.60;;;;;;5094175;28;20139;-74
2021/03/23 06:05:48;;;;;;;12.40;6.00;;;6.10;98.50;;;;;;5094737;28;20123;-74
2021/03/23 06:08:24;;;;;;;10.25;6.10;;;6.10;98.60;;;;;;5094117;28;20071;-74
2021/03/23 06:11:31;;;;;;;11.43;5.93;;;6.10;98.60;;;;;;5094309;28;20044;-74
2021/03/23 06:14:15;;;;;;;13.07;6.45;;;6.10;98.80;;;;;;5093989;28;20040;-74
2021/03/23 06:16:50;;;;;;;12.02;5.82;;;6.10;98.60;;;;;;5094348;28;20135;-74
2021/03/23 06:19:27;;;;;;;12.82;6.47;;;6.20;98.60;;;;;;5094234;28;20126;-74
2021/03/23 06:22:02;;;;;;;12.10;6.35;;;6.20;98.80;;;;;;5075987;28;20040;-74
2021/03/23 06:24:38;;;;;;;11.90;6.28;;;6.20;98.50;;;;;;5093870;28;20562;-74
2021/03/23 06:27:15;;;;;;;12.80;6.97;;;6.20;98.60;;;;;;5094332;28;20553;-74
2021/03/23 06:30:22;;;;;;;12.57;6.75;;;6.20;98.50;;;;;;5094214;28;20405;-74
2021/03/23 06:32:51;;;;;;;12.55;6.53;;;6.20;98.60;;;;;;5080006;28;20140;-74
2021/03/23 06:35:22;;;;;;;12.68;6.90;;;6.20;98.60;;;;;;5093620;28;20498;-74
2021/03/23 06:37:49;;;;;;;12.82;6.82;;;6.20;98.60;;;;;;5093605;28;20131;-74
2021/03/23 06:40:20;;;;;;;13.70;7.28;;;6.20;98.60;;;;;;5092336;28;20089;-74
2021/03/23 06:42:50;;;;;;;12.82;7.18;;;6.30;98.50;;;;;;5093616;28;20071;-74
2021/03/23 06:45:41;;;;;;;14.27;7.32;;;6.20;98.40;;;;;;5093454;28;20048;-74
2021/03/23 06:48:26;;;;;;;14.82;7.15;;;6.30;98.40;;;;;;5093861;28;20130;-74
2021/03/23 06:51:09;;;;;;;14.25;7.57;;;6.30;98.40;;;;;;5100401;28;20048;-74
2021/03/23 06:53:37;;;;;;;13.07;7.10;;;6.40;98.40;;;;;;5101255;28;20086;-74
2021/03/23 06:56:21;;;;;;;13.25;6.85;;;6.40;98.50;;;;;;5077796;28;20139;-75
2021/03/23 06:59:05;;;;;;;12.77;6.67;;;6.40;98.50;;;;;;5093375;28;20127;-75
2021/03/23 07:01:40;;;;;;;13.88;7.00;;;6.50;98.30;;;;;;5093303;28;20290;-76
2021/03/23 07:04:25;;;;;;;12.63;6.65;;;6.60;98.20;;;;;;5093094;28;20052;-76
2021/03/23 07:07:13;;;;;;;12.75;6.50;;;6.60;98.00;;;;;;5093356;28;20493;-75
2021/03/23 07:09:52;;;;;;;12.57;6.70;;;6.60;98.10;;;;;;5093841;28;20076;-75
2021/03/23 07:12:20;;;;;;;13.40;6.88;;;6.60;97.90;;;;;;5103801;28;20074;-74
2021/03/23 07:14:49;;;;;;;12.13;7.03;;;6.60;97.70;;;;;;5093873;28;20087;-75
2021/03/23 07:17:28;;;;;;;11.85;6.85;;;6.70;98.00;;;;;;5093501;28;20054;-75
2021/03/23 07:20:07;;;;;;;12.38;7.28;;;6.80;97.90;;;;;;5093262;28;20078;-75
2021/03/23 07:22:43;;;;;;;13.68;7.03;;;6.80;97.60;;;;;;5093044;28;20080;-75
2021/03/23 07:25:37;;;;;;;14.43;7.85;;;6.70;97.50;;;;;;5092748;28;20090;-75
2021/03/23 07:28:29;;;;;;;12.00;6.68;;;6.80;97.50;;;;;;5092769;28;20138;-75
2021/03/23 07:31:12;;;;;;;12.43;6.55;;;6.80;98.00;;;;;;5092817;28;20055;-75
2021/03/23 07:34:02;;;;;;;12.40;6.90;;;6.80;97.80;;;;;;5075085;28;20044;-75
2021/03/23 07:36:35;;;;;;;16.52;8.35;;;6.90;97.60;;;;;;5074333;28;20154;-75
2021/03/23 07:39:08;;;;;;;13.90;8.00;;;6.90;97.30;;;;;;5092516;28;20075;-75
2021/03/23 07:41:39;;;;;;;15.35;7.50;;;6.90;97.10;;;;;;5092825;28;20056;-75
2021/03/23 07:44:19;;;;;;;13.73;7.20;;;6.90;96.90;;;;;;5093066;28;20048;-75
2021/03/23 07:46:51;;;;;;;12.35;7.40;;;6.90;97.10;;;;;;5093140;28;20138;-75
2021/03/23 07:49:35;;;;;;;13.68;7.40;;;7.00;97.00;;;;;;5093266;28;20136;-75
2021/03/23 07:52:15;;;;;;;14.93;7.82;;;7.00;96.90;;;;;;5092958;28;20048;-75
2021/03/23 07:54:42;;;;;;;15.05;8.18;;;7.00;96.70;;;;;;5092876;28;20072;-75
2021/03/23 07:57:42;;;;;;;16.08;8.10;;;7.00;96.80;;;;;;5093366;28;20071;-75
2021/03/23 08:00:26;;;;;;;17.25;8.05;;;7.30;96.90;;;;;;5093536;28;20052;-75
2021/03/23 08:03:08;;;;;;;17.17;8.60;;;7.20;96.80;;;;;;5094429;28;20095;-76
2021/03/23 08:05:43;;;;;;;17.55;9.13;;;7.20;96.60;;;;;;5098174;28;20346;-75
2021/03/23 08:08:32;;;;;;;17.75;8.50;;;7.30;96.20;;;;;;5099565;28;20103;-75
2021/03/23 08:11:11;;;;;;;17.13;8.63;;;7.30;96.30;;;;;;5101257;28;20076;-75
2021/03/23 08:13:54;;;;;;;17.30;10.00;;;7.40;96.20;;;;;;5098732;28;20470;-75
2021/03/23 08:16:37;;;;;;;21.90;10.20;;;7.40;95.80;;;;;;5099379;28;20052;-75
2021/03/23 08:19:41;;;;;;;18.53;10.33;;;7.40;95.70;;;;;;5078671;28;20044;-75
2021/03/23 08:22:45;;;;;;;21.33;10.38;;;7.40;95.80;;;;;;5093508;28;20330;-75
2021/03/23 08:25:25;;;;;;;20.48;11.25;;;7.50;95.80;;;;;;5060673;28;20051;-75
2021/03/23 08:28:09;;;;;;;24.00;12.57;;;7.50;95.50;;;;;;5092295;28;20044;-75
2021/03/23 08:30:52;;;;;;;25.65;12.90;;;7.50;95.20;;;;;;5092335;28;20135;-75
2021/03/23 08:33:52;;;;;;;21.27;11.63;;;7.50;95.20;;;;;;5092359;28;20097;-75
2021/03/23 08:36:33;;;;;;;25.30;12.60;;;7.50;95.30;;;;;;5092792;28;20140;-75
2021/03/23 08:39:16;;;;;;;21.17;12.05;;;7.50;95.20;;;;;;5096091;28;20131;-75
2021/03/23 08:41:55;;;;;;;22.92;11.75;;;7.60;95.20;;;;;;5079380;28;20124;-75
2021/03/23 08:44:34;;;;;;;26.40;14.15;;;7.60;95.30;;;;;;5095776;28;20052;-75
2021/03/23 08:47:12;;;;;;;24.23;12.35;;;7.70;94.80;;;;;;5095807;28;20473;-75
2021/03/23 08:49:40;;;;;;;24.10;13.05;;;7.60;95.10;;;;;;5095895;28;20131;-75
2021/03/23 08:52:19;;;;;;;22.95;12.88;;;7.70;95.20;;;;;;5095674;28;20139;-75
2021/03/23 08:54:50;;;;;;;25.20;13.10;;;7.80;95.30;;;;;;5095313;28;20132;-75
2021/03/23 08:57:18;;;;;;;21.55;12.13;;;7.80;95.10;;;;;;5078439;28;20410;-76
2021/03/23 08:59:56;;;;;;;23.98;12.82;;;7.90;95.10;;;;;;5077642;28;20135;-76
2021/03/23 09:02:48;;;;;;;23.02;13.23;;;8.10;95.00;;;;;;5096066;28;20050;-75
2021/03/23 09:05:55;;;;;;;21.60;12.25;;;8.20;95.00;;;;;;5104322;28;20056;-76
2021/03/23 09:08:39;;;;;;;22.38;12.35;;;8.30;95.30;;;;;;5097005;28;20040;-75
2021/03/23 09:11:09;;;;;;;24.27;13.60;;;8.40;95.20;;;;;;5079188;28;20040;-75
2021/03/23 09:14:19;;;;;;;24.08;13.82;;;8.60;94.60;;;;;;5095298;28;20142;-75
2021/03/23 09:16:54;;;;;;;25.70;12.77;;;8.70;94.40;;;;;;5065708;28;20056;-75
2021/03/23 09:19:39;;;;;;;23.10;11.88;;;8.70;94.10;;;;;;5095416;28;20432;-75
2021/03/23 09:22:35;;;;;;;21.10;11.63;;;8.80;94.40;;;;;;5077054;28;20061;-75
2021/03/23 09:25:52;;;;;;;21.45;11.85;;;8.80;94.50;;;;;;5077192;28;20058;-74
2021/03/23 09:28:50;;;;;;;20.75;12.35;;;8.90;94.20;;;;;;5094927;28;20094;-75
2021/03/23 09:31:22;;;;;;;24.05;13.60;;;9.10;93.90;;;;;;5076950;28;20123;-75
2021/03/23 09:33:51;;;;;;;23.55;13.07;;;9.10;93.30;;;;;;5095017;28;20093;-75
2021/03/23 09:36:47;;;;;;;24.25;13.05;;;9.20;92.70;;;;;;5094676;28;20505;-75
2021/03/23 09:39:36;;;;;;;25.83;13.88;;;9.20;92.10;;;;;;5060392;28;20044;-75
2021/03/23 09:42:32;;;;;;;25.17;13.55;;;9.20;92.00;;;;;;5094988;28;20466;-75
2021/03/23 09:45:23;;;;;;;22.67;12.73;;;9.20;92.40;;;;;;5096125;28;20083;-75
2021/03/23 09:48:40;;;;;;;24.67;12.73;;;9.30;92.30;;;;;;5095525;28;20048;-75
2021/03/23 09:51:17;;;;;;;20.45;10.63;;;9.40;92.20;;;;;;5096505;28;20044;-75
2021/03/23 09:53:44;;;;;;;18.13;9.45;;;9.40;92.20;;;;;;5095200;28;20075;-75
2021/03/23 09:56:15;;;;;;;18.95;9.90;;;9.40;92.10;;;;;;5095886;28;20055;-75
2021/03/23 09:58:42;;;;;;;18.42;10.15;;;9.50;92.00;;;;;;5095839;28;20051;-74
2021/03/23 10:01:18;;;;;;;16.65;9.52;;;9.50;91.70;;;;;;5094456;28;20059;-74
2021/03/23 10:03:46;;;;;;;19.20;9.77;;;9.60;91.60;;;;;;5094043;28;20490;-76
2021/03/23 10:06:18;;;;;;;19.88;10.65;;;9.60;91.70;;;;;;5059480;28;20048;-76
2021/03/23 10:08:59;;;;;;;17.83;10.02;;;9.70;91.70;;;;;;5094307;28;20040;-74
2021/03/23 10:11:28;;;;;;;18.40;9.40;;;9.80;91.10;;;;;;5094309;28;20048;-73
2021/03/23 10:14:00;;;;;;;17.35;9.70;;;9.80;90.80;;;;;;5094358;28;20070;-75
2021/03/23 10:16:31;;;;;;;14.57;8.55;;;9.90;90.60;;;;;;5094557;28;20055;-75
2021/03/23 10:19:06;;;;;;;16.55;8.77;;;9.80;90.50;;;;;;5095338;28;20047;-76
2021/03/23 10:21:37;;;;;;;15.48;9.32;;;9.90;90.20;;;;;;5094066;28;20132;-76
2021/03/23 10:24:14;;;;;;;17.15;9.02;;;9.90;89.70;;;;;;5093891;28;20131;-75
2021/03/23 10:26:45;;;;;;;21.60;11.63;;;9.90;89.10;;;;;;5076123;28;20097;-76
2021/03/23 10:29:18;;;;;;;17.67;9.32;;;9.90;88.70;;;;;;5093926;28;20520;-75
2021/03/23 10:31:51;;;;;;;13.90;8.35;;;9.80;88.70;;;;;;5094471;28;20048;-75
2021/03/23 10:34:23;;;;;;;15.00;8.23;;;9.80;88.50;;;;;;5093949;28;20245;-75
2021/03/23 10:36:54;;;;;;;13.65;7.55;;;9.80;88.60;;;;;;5093882;28;20051;-75
2021/03/23 10:39:47;;;;;;;14.80;9.15;;;9.70;88.50;;;;;;5092413;28;20521;-75
2021/03/23 10:42:19;;;;;;;13.73;8.18;;;9.70;87.30;;;;;;5093452;28;20052;-75
2021/03/23 10:44:47;;;;;;;13.57;8.27;;;9.50;87.80;;;;;;5093557;28;20486;-75
2021/03/23 10:47:32;;;;;;;13.77;8.20;;;9.40;88.10;;;;;;5093689;28;20082;-76
2021/03/23 10:50:25;;;;;;;14.85;8.18;;;9.40;89.10;;;;;;5093871;28;20131;-75
2021/03/23 10:53:09;;;;;;;15.20;8.00;;;9.40;88.60;;;;;;5075445;28;20425;-75
2021/03/23 10:55:41;;;;;;;15.82;7.97;;;9.30;88.80;;;;;;5082372;28;20473;-75
2021/03/23 10:58:25;;;;;;;14.90;7.88;;;9.30;88.90;;;;;;5097774;28;20493;-75
2021/03/23 11:01:13;;;;;;;14.43;7.65;;;9.30;89.30;;;;;;5058206;28;20044;-75
2021/03/23 11:03:42;;;;;;;12.80;7.25;;;9.30;89.40;;;;;;5092985;28;20134;-75
2021/03/23 11:06:30;;;;;;;11.80;6.30;;;9.20;87.90;;;;;;5093384;28;20110;-75
2021/03/23 11:08:58;;;;;;;13.70;7.50;;;9.30;88.10;;;;;;5093231;28;20117;-75
2021/03/23 11:11:24;;;;;;;13.98;7.20;;;9.30;88.00;;;;;;5093165;28;20055;-76
2021/03/23 11:13:51;;;;;;;11.73;6.57;;;9.20;88.10;;;;;;5092989;28;20263;-75
2021/03/23 11:16:20;;;;;;;12.07;6.75;;;9.30;88.30;;;;;;5092742;28;20083;-75
2021/03/23 11:18:48;;;;;;;11.27;6.60;;;9.30;87.50;;;;;;5093101;28;20052;-76
2021/03/23 11:21:18;;;;;;;10.73;6.53;;;9.20;88.00;;;;;;5093098;28;20390;-76
2021/03/23 11:23:47;;;;;;;10.95;6.05;;;9.30;88.40;;;;;;5075128;28;20047;-75
2021/03/23 11:26:19;;;;;;;12.13;6.28;;;9.30;87.50;;;;;;5092945;28;20406;-75
2021/03/23 11:28:46;;;;;;;11.57;6.53;;;9.30;87.90;;;;;;5093188;28;20425;-75
2021/03/23 11:31:15;;;;;;;10.68;5.90;;;9.40;86.80;;;;;;5074975;28;20048;-75
2021/03/23 11:33:43;;;;;;;11.30;6.50;;;9.40;86.80;;;;;;5092851;28;20055;-75
2021/03/23 11:36:11;;;;;;;11.65;6.78;;;9.40;87.20;;;;;;5092173;28;20131;-75
2021/03/23 11:38:38;;;;;;;10.77;6.03;;;9.40;87.10;;;;;;5092909;28;20044;-75
2021/03/23 11:41:09;;;;;;;11.30;6.57;;;9.30;86.10;;;;;;5092720;28;20079;-75
2021/03/23 11:43:42;;;;;;;10.98;6.00;;;9.30;86.30;;;;;;5091596;28;20477;-76
2021/03/23 11:46:18;;;;;;;11.98;6.63;;;9.20;86.30;;;;;;5092661;28;20441;-75
2021/03/23 11:48:50;;;;;;;10.68;5.90;;;9.30;86.50;;;;;;5093367;28;20054;-76
2021/03/23 11:51:20;;;;;;;12.15;6.55;;;9.30;86.20;;;;;;5092188;28;20071;-75
2021/03/23 11:53:48;;;;;;;10.38;6.53;;;9.40;85.80;;;;;;5072611;28;20052;-76
2021/03/23 11:56:14;;;;;;;10.68;5.75;;;9.50;85.70;;;;;;5061487;28;20093;-76
2021/03/23 11:58:43;;;;;;;12.07;6.80;;;9.50;85.40;;;;;;5092392;28;20052;-76
2021/03/23 12:01:10;;;;;;;10.75;6.28;;;9.60;85.20;;;;;;5092510;28;20040;-75
2021/03/23 12:03:39;;;;;;;13.00;6.40;;;9.70;85.20;;;;;;5074232;28;20056;-75
2021/03/23 12:06:07;;;;;;;12.70;6.97;;;9.70;84.40;;;;;;5092368;28;20127;-75
2021/03/23 12:08:41;;;;;;;10.73;5.88;;;9.80;83.60;;;;;;5074790;28;20055;-76
2021/03/23 12:11:26;;;;;;;10.77;5.85;;;9.80;83.20;;;;;;5094280;28;20044;-76
2021/03/23 12:14:21;;;;;;;9.43;5.70;;;9.90;82.40;;;;;;5096440;28;20044;-76
2021/03/23 12:16:58;;;;;;;10.57;6.00;;;9.80;81.40;;;;;;5095602;28;20131;-76
2021/03/23 12:19:40;;;;;;;11.50;6.38;;;9.90;81.00;;;;;;5093955;28;20075;-76
2021/03/23 12:22:09;;;;;;;11.60;6.10;;;9.80;80.60;;;;;;5071497;28;20045;-76
2021/03/23 12:24:37;;;;;;;10.57;5.88;;;9.80;78.40;;;;;;5072108;28;20448;-75
2021/03/23 12:27:06;;;;;;;14.30;6.95;;;9.70;77.30;;;;;;5071989;28;20174;-75
2021/03/23 12:29:34;;;;;;;10.25;5.70;;;9.70;76.00;;;;;;5091990;28;20044;-76
2021/03/23 12:32:00;;;;;;;12.55;6.45;;;9.60;76.50;;;;;;5091522;28;20131;-75
2021/03/23 12:34:29;;;;;;;13.98;6.95;;;9.60;77.00;;;;;;5091481;28;20056;-76
2021/03/23 12:36:55;;;;;;;11.75;5.88;;;9.50;77.20;;;;;;5092346;28;20127;-76
2021/03/23 12:39:23;;;;;;;10.30;5.65;;;9.50;77.90;;;;;;5093071;28;20131;-76
2021/03/23 12:41:50;;;;;;;10.75;5.72;;;9.50;78.30;;;;;;5093289;28;20127;-76
2021/03/23 12:44:17;;;;;;;10.07;6.03;;;9.60;78.90;;;;;;5092800;28;20138;-75
2021/03/23 12:46:44;;;;;;;11.50;6.43;;;9.60;78.80;;;;;;5103366;28;20048;-76
2021/03/23 12:49:11;;;;;;;11.07;6.15;;;9.70;78.60;;;;;;5093287;28;20442;-76
2021/03/23 12:51:42;;;;;;;11.52;6.95;;;9.80;78.10;;;;;;5074920;28;20048;-75
2021/03/23 12:54:17;;;;;;;12.10;6.45;;;9.80;77.60;;;;;;5092841;28;20081;-75
2021/03/23 12:56:44;;;;;;;12.48;6.70;;;9.80;77.10;;;;;;5092078;28;20398;-76
2021/03/23 12:59:20;;;;;;;11.48;6.93;;;9.80;76.80;;;;;;5074121;28;20090;-76
2021/03/23 13:01:47;;;;;;;10.90;6.70;;;9.80;75.10;;;;;;5092823;28;20493;-76
2021/03/23 13:04:14;;;;;;;10.30;6.00;;;9.70;75.10;;;;;;5092361;28;22314;-75
2021/03/23 13:06:41;;;;;;;12.38;6.55;;;9.60;76.60;;;;;;5092736;28;20497;-76
2021/03/23 13:09:11;;;;;;;12.52;6.57;;;9.60;76.60;;;;;;5092882;28;20048;-75
2021/03/23 13:11:42;;;;;;;12.80;6.80;;;9.50;77.00;;;;;;5091646;28;20048;-76
2021/03/23 13:14:18;;;;;;;11.10;6.53;;;9.50;77.10;;;;;;5092912;28;20047;-75
2021/03/23 13:16:45;;;;;;;12.73;6.32;;;9.50;76.80;;;;;;5092465;28;20143;-76